Time;durP1;ratioP1;P1;durP2;ratioP2;P2;SDS_P1;SDS_P2;PMS_P1;PMS_P2;Temp;Humidity;BMP_temperature;BMP_pressure;BME280_temperature;BME280_humidity;BME280_pressure;Samples;Min_cycle;Max_cycle;Signal;HPM_P1;HPM_P2
2022/11/19 00:01:20;;;;;;;6.68;4.15;;;2.00;99.90;;;;;;5094846;28;20136;-81
2022/11/19 00:03:46;;;;;;;7.25;4.65;;;2.00;99.90;;;;;;5094527;28;20048;-81
2022/11/19 00:06:15;;;;;;;7.15;4.00;;;2.00;99.90;;;;;;5078061;28;20538;-81
2022/11/19 00:08:41;;;;;;;9.85;3.90;;;2.00;99.90;;;;;;5077552;28;20048;-81
2022/11/19 00:11:10;;;;;;;6.80;4.10;;;2.00;99.90;;;;;;5094545;28;20052;-81
2022/11/19 00:13:36;;;;;;;6.53;3.90;;;2.00;99.90;;;;;;5094488;28;20048;-83
2022/11/19 00:16:05;;;;;;;6.20;3.83;;;2.00;99.90;;;;;;5077482;28;20048;-81
2022/11/19 00:18:30;;;;;;;6.55;4.10;;;2.00;99.90;;;;;;5094183;28;20113;-76
2022/11/19 00:21:04;;;;;;;7.87;3.93;;;2.00;99.90;;;;;;5095829;28;20048;-79
2022/11/19 00:23:30;;;;;;;6.60;3.45;;;2.00;99.90;;;;;;5095331;28;20060;-83
2022/11/19 00:26:02;;;;;;;5.93;3.73;;;2.00;99.90;;;;;;5077593;28;20052;-82
2022/11/19 00:28:27;;;;;;;6.03;3.45;;;2.00;99.90;;;;;;5093963;28;20056;-82
2022/11/19 00:30:53;;;;;;;5.50;3.23;;;2.00;99.90;;;;;;5094044;28;20058;-82
2022/11/19 00:33:19;;;;;;;5.70;3.30;;;2.00;99.90;;;;;;5095302;28;20100;-82
2022/11/19 00:35:44;;;;;;;6.03;3.20;;;1.90;99.90;;;;;;5076934;28;20472;-83
2022/11/19 00:38:10;;;;;;;6.13;3.77;;;2.00;99.90;;;;;;5094047;28;20097;-83
2022/11/19 00:40:36;;;;;;;6.07;3.57;;;1.90;99.90;;;;;;5093763;28;20040;-83
2022/11/19 00:45:45;;;;;;;6.30;3.70;;;2.00;99.90;;;;;;5093780;28;20063;-83
2022/11/19 00:48:11;;;;;;;5.97;3.60;;;1.90;99.90;;;;;;5077038;28;20048;-83
2022/11/19 00:50:37;;;;;;;8.87;3.47;;;2.00;99.90;;;;;;5094545;28;20407;-83
2022/11/19 00:53:02;;;;;;;5.43;3.43;;;1.90;99.90;;;;;;5093793;28;20044;-83
2022/11/19 00:55:28;;;;;;;5.83;3.40;;;2.00;99.90;;;;;;5076894;28;20131;-82
2022/11/19 00:57:54;;;;;;;6.03;3.13;;;2.00;99.90;;;;;;5094409;28;20487;-82
2022/11/19 01:00:19;;;;;;;5.47;3.37;;;1.90;99.90;;;;;;5094636;28;20070;-82
2022/11/19 01:02:45;;;;;;;6.83;3.63;;;1.90;99.90;;;;;;5076481;28;20112;-83
2022/11/19 01:05:11;;;;;;;5.90;3.23;;;1.90;99.90;;;;;;5093426;28;20400;-83
2022/11/19 01:07:36;;;;;;;5.87;3.70;;;1.90;99.90;;;;;;5076675;28;20048;-87
2022/11/19 01:10:02;;;;;;;7.20;3.80;;;1.90;99.90;;;;;;5093440;28;20066;-82
2022/11/19 01:12:28;;;;;;;9.00;3.40;;;1.80;99.90;;;;;;5076730;28;20059;-82
2022/11/19 01:14:54;;;;;;;6.00;3.67;;;1.90;99.90;;;;;;5110177;28;20464;-82
2022/11/19 01:17:19;;;;;;;5.57;3.50;;;1.80;99.90;;;;;;5093119;28;20040;-82
2022/11/19 01:19:45;;;;;;;5.57;3.27;;;1.80;99.90;;;;;;5075847;28;20066;-82
2022/11/19 01:22:10;;;;;;;6.33;3.53;;;1.80;99.90;;;;;;5093050;28;20048;-82
2022/11/19 01:24:36;;;;;;;15.30;3.43;;;1.80;99.90;;;;;;5094214;28;20101;-82
2022/11/19 01:27:02;;;;;;;5.70;3.50;;;1.80;99.90;;;;;;5092974;28;20127;-82
2022/11/19 01:29:28;;;;;;;6.43;3.37;;;1.80;99.90;;;;;;5093112;28;20126;-82
2022/11/19 01:31:53;;;;;;;5.80;3.73;;;1.70;99.90;;;;;;5076100;28;20048;-82
2022/11/19 01:34:19;;;;;;;6.60;3.93;;;1.70;99.90;;;;;;5094038;28;20051;-81
2022/11/19 01:36:44;;;;;;;8.43;4.03;;;1.70;99.90;;;;;;5092759;28;20048;-82
2022/11/19 01:39:10;;;;;;;7.33;3.70;;;1.70;99.90;;;;;;5092285;28;20135;-81
2022/11/19 01:41:37;;;;;;;7.67;4.47;;;1.60;99.90;;;;;;5075837;28;20109;-82
2022/11/19 01:44:06;;;;;;;6.85;3.95;;;1.60;99.90;;;;;;5092392;28;20032;-82
2022/11/19 01:46:34;;;;;;;7.22;4.20;;;1.50;99.90;;;;;;5076015;28;20095;-82
2022/11/19 01:49:26;;;;;;;6.93;3.90;;;1.50;99.90;;;;;;5092466;28;20091;-82
2022/11/19 01:51:59;;;;;;;7.63;4.03;;;1.50;99.90;;;;;;5072666;28;20060;-82
2022/11/19 01:54:27;;;;;;;7.40;4.00;;;1.40;99.90;;;;;;5093705;28;20051;-82
2022/11/19 01:56:55;;;;;;;6.80;3.80;;;1.30;99.90;;;;;;5092118;28;20044;-82
2022/11/19 01:59:21;;;;;;;7.65;3.92;;;1.30;99.90;;;;;;5092451;28;20044;-82
2022/11/19 02:01:47;;;;;;;6.97;3.90;;;1.30;99.90;;;;;;5092439;28;20051;-82
2022/11/19 02:04:16;;;;;;;6.73;4.10;;;1.20;99.90;;;;;;5092270;28;20411;-82
2022/11/19 02:06:43;;;;;;;7.88;3.72;;;1.20;99.90;;;;;;5092532;28;20048;-81
2022/11/19 02:09:08;;;;;;;5.85;3.50;;;1.20;99.90;;;;;;5092283;28;20052;-82
2022/11/19 02:11:40;;;;;;;6.03;3.60;;;1.20;99.90;;;;;;5092491;28;20549;-81
2022/11/19 02:14:19;;;;;;;7.13;4.30;;;1.10;99.90;;;;;;5075258;28;20058;-81
2022/11/19 02:17:08;;;;;;;6.95;3.72;;;1.10;99.90;;;;;;5092532;28;20051;-81
2022/11/19 02:19:39;;;;;;;6.22;3.83;;;1.10;99.90;;;;;;5091833;28;20093;-81
2022/11/19 02:22:49;;;;;;;7.18;4.55;;;1.10;99.90;;;;;;5092064;28;20060;-81
2022/11/19 02:25:39;;;;;;;8.90;3.95;;;1.00;99.90;;;;;;5092026;28;20071;-81
2022/11/19 02:28:17;;;;;;;6.95;4.07;;;1.00;99.90;;;;;;5075173;28;20523;-81
2022/11/19 02:30:50;;;;;;;7.95;4.70;;;1.00;99.90;;;;;;5075522;28;20047;-81
2022/11/19 02:33:34;;;;;;;7.43;3.97;;;1.00;99.90;;;;;;5092195;28;20052;-83
2022/11/19 02:36:39;;;;;;;7.20;4.35;;;1.00;99.90;;;;;;5091917;28;20047;-82
2022/11/19 02:39:23;;;;;;;8.27;4.93;;;1.00;99.90;;;;;;5074856;28;20052;-82
2022/11/19 02:41:54;;;;;;;7.10;4.45;;;1.00;99.90;;;;;;5091898;28;20104;-83
2022/11/19 02:47:21;;;;;;;7.45;4.13;;;0.90;99.90;;;;;;5091802;28;20048;-81
2022/11/19 02:49:50;;;;;;;8.40;4.80;;;0.90;99.90;;;;;;5092120;28;20483;-81
2022/11/19 02:52:16;;;;;;;7.53;5.18;;;0.90;99.90;;;;;;5096178;28;20051;-81
2022/11/19 02:54:42;;;;;;;6.43;4.35;;;0.80;99.90;;;;;;5062751;28;20048;-81
2022/11/19 02:57:10;;;;;;;6.50;4.03;;;0.80;99.90;;;;;;5078962;28;20436;-81
2022/11/19 03:06:08;;;;;;;7.95;4.60;;;0.80;99.90;;;;;;5095721;28;20052;-82
2022/11/19 03:08:34;;;;;;;8.32;5.13;;;0.70;99.90;;;;;;5095801;28;20044;-82
2022/11/19 03:11:20;;;;;;;7.40;4.80;;;0.70;99.90;;;;;;5095514;28;20044;-82
2022/11/19 03:17:14;;;;;;;7.78;4.63;;;0.70;99.90;;;;;;5095476;28;20048;-82
2022/11/19 03:20:00;;;;;;;6.47;3.80;;;0.60;99.90;;;;;;5096240;28;20476;-81
2022/11/19 03:22:32;;;;;;;6.32;3.85;;;0.70;99.90;;;;;;5096555;28;20048;-81
2022/11/19 03:25:12;;;;;;;6.97;4.07;;;0.70;99.90;;;;;;5094722;28;20051;-82
2022/11/19 03:27:41;;;;;;;6.35;4.15;;;0.60;99.90;;;;;;5095126;28;20136;-80
2022/11/19 03:30:08;;;;;;;7.47;4.13;;;0.60;99.90;;;;;;5095126;28;20052;-81
2022/11/19 03:32:46;;;;;;;7.30;4.63;;;0.60;99.90;;;;;;5096275;28;20514;-80
2022/11/19 03:35:21;;;;;;;7.68;4.40;;;0.60;99.90;;;;;;5078167;28;20052;-80
2022/11/19 03:37:51;;;;;;;7.17;4.70;;;0.50;99.90;;;;;;5095273;28;20146;-80
2022/11/19 03:40:19;;;;;;;6.95;3.70;;;0.40;99.90;;;;;;5094945;28;20043;-81
2022/11/19 03:42:49;;;;;;;6.60;4.35;;;0.40;99.90;;;;;;5096146;28;20044;-81
2022/11/19 03:45:19;;;;;;;7.47;4.47;;;0.50;99.90;;;;;;5077776;28;20083;-81
2022/11/19 03:47:48;;;;;;;7.07;4.32;;;0.40;99.90;;;;;;5095219;28;20032;-80
2022/11/19 03:50:27;;;;;;;7.72;5.10;;;0.40;99.90;;;;;;5077959;28;20404;-81
2022/11/19 03:52:53;;;;;;;6.53;4.03;;;0.40;99.90;;;;;;5094901;28;20130;-80
2022/11/19 03:55:23;;;;;;;6.78;4.35;;;0.30;99.90;;;;;;5094464;28;20052;-81
2022/11/19 03:57:49;;;;;;;7.10;4.32;;;0.40;99.90;;;;;;5094918;28;20044;-80
2022/11/19 04:00:15;;;;;;;7.03;4.30;;;0.40;99.90;;;;;;5077760;28;20403;-80
2022/11/19 04:02:41;;;;;;;7.75;4.78;;;0.30;99.90;;;;;;5094016;28;20468;-80
2022/11/19 04:05:08;;;;;;;7.67;4.07;;;0.20;99.90;;;;;;5095239;28;20079;-80
2022/11/19 04:07:34;;;;;;;6.65;4.38;;;0.20;99.90;;;;;;5094400;28;20105;-80
2022/11/19 04:09:59;;;;;;;8.30;5.27;;;0.20;99.90;;;;;;5094434;28;20044;-80
2022/11/19 04:12:25;;;;;;;7.13;4.63;;;0.10;99.90;;;;;;5095005;28;20048;-80
2022/11/19 04:14:51;;;;;;;8.37;5.00;;;0.20;99.90;;;;;;5094572;28;20036;-80
2022/11/19 04:17:18;;;;;;;7.90;4.68;;;0.20;99.90;;;;;;5094272;28;20047;-80
2022/11/19 04:19:44;;;;;;;8.20;4.90;;;0.20;99.90;;;;;;5094195;28;20536;-80
2022/11/19 04:22:10;;;;;;;7.78;4.72;;;0.10;99.90;;;;;;5094082;28;20052;-80
2022/11/19 04:24:36;;;;;;;9.23;4.70;;;0.10;99.90;;;;;;5094100;28;20063;-80
2022/11/19 04:27:01;;;;;;;8.10;4.97;;;0.10;99.90;;;;;;5094981;28;20048;-80
2022/11/19 04:29:27;;;;;;;9.27;5.47;;;0.00;99.90;;;;;;5094406;28;20040;-80
2022/11/19 04:31:53;;;;;;;9.23;5.40;;;0.00;99.90;;;;;;5094267;28;20112;-80
2022/11/19 04:34:19;;;;;;;7.97;4.80;;;0.00;99.90;;;;;;5077125;28;20051;-80
2022/11/19 04:36:44;;;;;;;7.93;5.00;;;0.00;99.90;;;;;;5094236;28;20286;-80
2022/11/19 04:39:11;;;;;;;9.43;5.50;;;0.00;99.90;;;;;;5093284;28;20541;-80
2022/11/19 04:41:38;;;;;;;7.93;4.70;;;0.00;99.90;;;;;;5094078;28;20083;-80
2022/11/19 04:44:04;;;;;;;8.70;5.25;;;0.10;99.90;;;;;;5094609;28;20044;-81
2022/11/19 04:46:30;;;;;;;7.82;4.72;;;-0.10;99.90;;;;;;5094958;28;20044;-80
2022/11/19 04:48:56;;;;;;;7.18;4.35;;;0.00;99.90;;;;;;5076878;28;20043;-80
2022/11/19 04:51:21;;;;;;;7.23;4.90;;;0.00;99.90;;;;;;5060250;28;20070;-80
2022/11/19 04:53:47;;;;;;;7.87;4.53;;;0.10;99.90;;;;;;5093870;28;20376;-80
2022/11/19 04:56:13;;;;;;;8.07;4.87;;;0.10;99.90;;;;;;5093500;28;20036;-80
2022/11/19 04:58:39;;;;;;;8.37;4.83;;;0.10;99.90;;;;;;5093576;28;20051;-81
2022/11/19 05:01:04;;;;;;;7.53;4.47;;;0.10;99.90;;;;;;5076725;28;20058;-85
2022/11/19 05:03:30;;;;;;;7.80;4.70;;;0.00;99.90;;;;;;5093608;28;20048;-81
2022/11/19 05:05:56;;;;;;;8.45;4.75;;;-0.10;99.90;;;;;;5076807;28;20100;-81
2022/11/19 05:08:22;;;;;;;8.07;5.10;;;0.00;99.90;;;;;;5093350;28;20549;-81
2022/11/19 05:10:48;;;;;;;7.20;4.27;;;-0.10;99.90;;;;;;5076644;28;20044;-81
2022/11/19 05:13:13;;;;;;;7.40;4.70;;;-0.10;99.90;;;;;;5094134;28;20051;-81
2022/11/19 05:15:39;;;;;;;7.03;4.30;;;0.00;99.90;;;;;;5094406;28;20044;-80
2022/11/19 05:18:05;;;;;;;6.57;3.90;;;0.10;99.90;;;;;;5093308;28;20051;-80
2022/11/19 05:20:31;;;;;;;8.00;4.95;;;-0.10;99.90;;;;;;5076403;28;20135;-80
2022/11/19 05:22:57;;;;;;;7.87;5.10;;;-0.10;99.90;;;;;;5076393;28;20135;-80
2022/11/19 05:25:22;;;;;;;8.60;4.47;;;-0.10;99.90;;;;;;5075407;28;20109;-81
2022/11/19 05:27:48;;;;;;;6.93;4.23;;;0.00;99.90;;;;;;5076368;28;20054;-80
2022/11/19 05:30:15;;;;;;;6.57;4.40;;;-0.10;99.90;;;;;;5093835;28;20567;-81
2022/11/19 05:32:41;;;;;;;9.27;5.10;;;-0.10;99.90;;;;;;5094020;28;20815;-80
2022/11/19 05:35:07;;;;;;;7.37;4.37;;;-0.10;99.90;;;;;;5092968;28;20052;-80
2022/11/19 05:37:33;;;;;;;7.70;4.55;;;-0.20;99.90;;;;;;5075938;28;20062;-80
2022/11/19 05:39:59;;;;;;;7.73;4.87;;;-0.20;99.90;;;;;;5092969;28;20459;-80
2022/11/19 05:42:25;;;;;;;7.13;4.70;;;-0.10;99.90;;;;;;5092729;28;20050;-80
2022/11/19 05:44:50;;;;;;;7.20;4.67;;;-0.20;99.90;;;;;;5076011;28;20048;-80
2022/11/19 05:47:16;;;;;;;6.70;3.97;;;-0.20;99.90;;;;;;5075607;28;20044;-80
2022/11/19 05:49:42;;;;;;;7.50;4.43;;;-0.20;99.90;;;;;;5075837;28;20051;-80
2022/11/19 05:52:09;;;;;;;7.13;4.70;;;-0.30;99.90;;;;;;5075631;28;20040;-80
2022/11/19 05:54:34;;;;;;;8.15;4.70;;;-0.20;99.90;;;;;;5092342;28;20052;-80
2022/11/19 05:57:00;;;;;;;8.33;5.20;;;-0.30;99.90;;;;;;5092662;28;20044;-80
2022/11/19 05:59:26;;;;;;;9.20;4.90;;;-0.20;99.90;;;;;;5092065;28;20399;-80
2022/11/19 06:01:52;;;;;;;7.30;4.67;;;-0.30;99.90;;;;;;5075589;28;20089;-80
2022/11/19 06:04:18;;;;;;;7.60;4.97;;;-0.30;99.90;;;;;;5075491;28;20055;-80
2022/11/19 06:06:43;;;;;;;7.78;5.22;;;-0.30;99.90;;;;;;5093413;28;20044;-81
2022/11/19 06:09:09;;;;;;;9.07;5.30;;;-0.40;99.90;;;;;;5075527;28;20404;-80
2022/11/19 06:11:47;;;;;;;7.80;5.30;;;-0.40;99.90;;;;;;5075425;28;20048;-80
2022/11/19 06:14:13;;;;;;;11.38;5.53;;;-0.50;99.90;;;;;;5093506;28;20048;-83
2022/11/19 06:16:39;;;;;;;9.13;5.45;;;-0.50;99.90;;;;;;5092376;28;20047;-80
2022/11/19 06:19:05;;;;;;;7.27;4.70;;;-0.40;99.90;;;;;;5092215;28;20092;-80
2022/11/19 06:21:31;;;;;;;7.97;5.17;;;-0.40;99.90;;;;;;5075316;28;20290;-80
2022/11/19 06:23:56;;;;;;;9.50;5.03;;;-0.40;99.90;;;;;;5091954;28;20143;-80
2022/11/19 06:26:27;;;;;;;7.57;5.03;;;-0.40;99.90;;;;;;5091426;28;20051;-80
2022/11/19 06:28:53;;;;;;;9.23;5.60;;;-0.50;99.90;;;;;;5076272;28;20515;-80
2022/11/19 06:31:20;;;;;;;7.55;5.20;;;-0.50;99.90;;;;;;5075132;28;20052;-80
2022/11/19 06:33:46;;;;;;;8.15;5.25;;;-0.50;99.90;;;;;;5093148;28;20044;-80
2022/11/19 06:36:12;;;;;;;10.93;5.57;;;-0.50;99.90;;;;;;5075449;28;20124;-79
2022/11/19 06:38:37;;;;;;;9.27;5.20;;;-0.50;99.90;;;;;;5058124;28;20107;-80
2022/11/19 06:41:03;;;;;;;8.70;5.43;;;-0.50;99.90;;;;;;5075364;28;20093;-80
2022/11/19 06:43:29;;;;;;;8.53;5.47;;;-0.50;99.90;;;;;;5091867;28;20104;-80
2022/11/19 06:45:54;;;;;;;8.70;5.47;;;-0.50;99.90;;;;;;5058251;28;20056;-80
2022/11/19 06:48:20;;;;;;;8.17;5.13;;;-0.50;99.90;;;;;;5091810;28;20086;-81
2022/11/19 06:50:46;;;;;;;9.43;5.18;;;-0.60;99.90;;;;;;5075207;28;20075;-80
2022/11/19 06:53:12;;;;;;;8.93;5.33;;;-0.60;99.90;;;;;;5092020;28;20102;-80
2022/11/19 06:55:38;;;;;;;8.03;5.23;;;-0.60;99.90;;;;;;5091694;28;20131;-80
2022/11/19 06:58:05;;;;;;;8.30;5.30;;;-0.60;99.90;;;;;;5091948;28;20048;-80
2022/11/19 07:00:32;;;;;;;8.43;5.60;;;-0.60;99.90;;;;;;5091715;28;20044;-80
2022/11/19 07:02:57;;;;;;;9.90;5.38;;;-0.60;99.90;;;;;;5092887;28;20488;-80
2022/11/19 07:05:23;;;;;;;9.03;5.67;;;-0.60;99.90;;;;;;5074836;28;20056;-80
2022/11/19 07:07:49;;;;;;;7.73;5.40;;;-0.70;99.90;;;;;;5075343;28;20083;-80
2022/11/19 07:10:15;;;;;;;8.40;5.33;;;-0.70;99.90;;;;;;5075003;28;20047;-79
2022/11/19 07:12:40;;;;;;;7.90;5.07;;;-0.60;99.90;;;;;;5091521;28;20051;-79
2022/11/19 07:15:06;;;;;;;8.27;5.23;;;-0.70;99.90;;;;;;5091892;28;20127;-79
2022/11/19 07:17:32;;;;;;;7.85;4.88;;;-0.70;99.90;;;;;;5091314;28;20094;-79
2022/11/19 07:19:58;;;;;;;8.57;5.27;;;-0.60;99.90;;;;;;5074650;28;20040;-80
2022/11/19 07:22:23;;;;;;;10.57;5.70;;;-0.60;99.90;;;;;;5074761;28;20040;-80
2022/11/19 07:24:49;;;;;;;10.20;6.33;;;-0.60;99.90;;;;;;5091650;28;20048;-80
2022/11/19 07:27:15;;;;;;;9.37;5.83;;;-0.60;99.90;;;;;;5074718;28;20101;-79
2022/11/19 07:29:41;;;;;;;9.68;5.13;;;-0.70;99.90;;;;;;5091492;28;20239;-79
2022/11/19 07:32:07;;;;;;;8.83;5.73;;;-0.70;99.90;;;;;;5091680;28;20484;-79
2022/11/19 07:34:33;;;;;;;9.07;6.07;;;-0.70;99.90;;;;;;5091401;28;20048;-79
2022/11/19 07:36:58;;;;;;;10.07;6.63;;;-0.70;99.90;;;;;;5092050;28;20110;-79
2022/11/19 07:39:24;;;;;;;8.97;5.37;;;-0.60;99.90;;;;;;5077615;28;20514;-80
2022/11/19 07:44:34;;;;;;;8.88;5.57;;;-0.60;99.90;;;;;;5080662;28;20051;-79
2022/11/19 07:46:59;;;;;;;9.20;5.93;;;-0.60;99.90;;;;;;5096459;28;20477;-79
2022/11/19 07:49:25;;;;;;;10.07;6.00;;;-0.60;99.90;;;;;;5094832;28;20098;-80
2022/11/19 07:51:52;;;;;;;10.50;6.00;;;-0.60;99.90;;;;;;5078257;28;20395;-79
2022/11/19 07:54:18;;;;;;;8.82;5.57;;;-0.60;99.90;;;;;;5094955;28;20679;-79
2022/11/19 07:56:44;;;;;;;8.38;5.90;;;-0.60;99.90;;;;;;5077926;28;20051;-79
2022/11/19 07:59:10;;;;;;;9.57;6.43;;;-0.50;99.90;;;;;;5094889;28;20503;-79
2022/11/19 08:01:37;;;;;;;9.10;5.75;;;-0.50;99.90;;;;;;5077716;28;20048;-79
2022/11/19 08:04:04;;;;;;;9.95;6.05;;;-0.50;99.90;;;;;;5094582;28;20054;-79
2022/11/19 08:06:33;;;;;;;8.75;6.15;;;-0.50;99.90;;;;;;5077516;28;20048;-79
2022/11/19 08:08:58;;;;;;;8.88;5.90;;;-0.60;99.90;;;;;;5094748;28;20055;-79
2022/11/19 08:11:24;;;;;;;9.13;6.03;;;-0.50;99.90;;;;;;5094723;28;20036;-79
2022/11/19 08:13:50;;;;;;;9.57;6.37;;;-0.40;99.90;;;;;;5077560;28;20040;-79
2022/11/19 08:18:11;;;;;;;9.57;6.38;;;-0.40;99.90;;;;;;5094510;28;20056;-79
2022/11/19 08:19:06;;;;;;;;;;;-0.40;99.90;;;;;;5081073;28;20048;-79
2022/11/19 08:21:31;;;;;;;10.02;6.35;;;-0.40;99.90;;;;;;5095303;28;19927;-79
2022/11/19 08:23:57;;;;;;;9.17;6.40;;;-0.30;99.90;;;;;;5093899;28;20134;-79
2022/11/19 08:26:23;;;;;;;9.27;5.73;;;-0.30;99.90;;;;;;5094289;28;20121;-79
2022/11/19 08:28:48;;;;;;;9.67;6.87;;;-0.20;99.90;;;;;;5094159;28;20129;-79
2022/11/19 08:31:14;;;;;;;9.93;6.80;;;-0.20;99.90;;;;;;5061060;28;20502;-79
2022/11/19 08:33:40;;;;;;;10.50;6.93;;;-0.20;99.90;;;;;;5077213;28;20083;-79
2022/11/19 08:36:06;;;;;;;11.27;7.17;;;-0.20;99.90;;;;;;5077587;28;20047;-79
2022/11/19 08:38:31;;;;;;;10.40;7.10;;;-0.20;99.90;;;;;;5093819;28;20075;-79
2022/11/19 08:43:43;;;;;;;11.65;8.10;;;-0.10;99.90;;;;;;5093680;28;20443;-79
2022/11/19 08:46:09;;;;;;;11.73;7.57;;;0.00;99.90;;;;;;5077389;28;20131;-79
2022/11/19 08:48:34;;;;;;;10.50;7.43;;;0.00;99.90;;;;;;5110166;28;20048;-79
2022/11/19 08:51:09;;;;;;;10.07;7.10;;;0.00;99.90;;;;;;5094065;28;20112;-80
2022/11/19 08:53:35;;;;;;;10.95;7.07;;;0.00;99.90;;;;;;5093592;28;20545;-81
2022/11/19 08:56:00;;;;;;;10.38;6.85;;;0.00;99.90;;;;;;5093832;28;20093;-80
2022/11/19 08:58:26;;;;;;;10.60;7.23;;;0.10;99.90;;;;;;5076689;28;20036;-80
2022/11/19 09:00:52;;;;;;;9.00;6.63;;;0.10;99.90;;;;;;5076594;28;20083;-80
2022/11/19 09:03:17;;;;;;;10.00;6.90;;;0.10;99.90;;;;;;5076884;28;20189;-80
2022/11/19 09:05:43;;;;;;;9.93;6.97;;;0.10;99.90;;;;;;5093310;28;20058;-81
2022/11/19 09:08:09;;;;;;;10.03;7.10;;;0.20;99.90;;;;;;5060054;28;20040;-81
2022/11/19 09:10:36;;;;;;;9.90;7.17;;;0.20;99.90;;;;;;5076423;28;20428;-82
2022/11/19 09:13:03;;;;;;;10.35;7.15;;;0.30;99.90;;;;;;5076518;28;20101;-80
2022/11/19 09:15:29;;;;;;;12.82;8.60;;;0.30;99.90;;;;;;5076837;28;20040;-80
2022/11/19 09:17:55;;;;;;;8.98;6.78;;;0.30;99.90;;;;;;5092963;28;20066;-80
2022/11/19 09:20:21;;;;;;;9.67;6.90;;;0.40;99.90;;;;;;5093322;28;20465;-80
2022/11/19 09:22:46;;;;;;;9.20;7.23;;;0.40;99.90;;;;;;5076272;28;20113;-80
2022/11/19 09:25:12;;;;;;;11.50;7.87;;;0.40;99.90;;;;;;5075906;28;20054;-80
2022/11/19 09:27:38;;;;;;;11.70;7.80;;;0.50;99.90;;;;;;5076275;28;20479;-82
2022/11/19 09:30:05;;;;;;;11.20;6.70;;;0.50;99.90;;;;;;5093270;28;20387;-81
2022/11/19 09:32:31;;;;;;;9.48;7.10;;;0.50;99.90;;;;;;5076221;28;20052;-81
2022/11/19 09:34:57;;;;;;;9.88;7.05;;;0.60;99.90;;;;;;5092881;28;20131;-80
2022/11/19 09:37:23;;;;;;;11.57;6.67;;;0.60;99.90;;;;;;5093194;28;20547;-82
2022/11/19 09:39:48;;;;;;;10.17;7.27;;;0.70;99.90;;;;;;5092415;28;20040;-80
2022/11/19 09:42:27;;;;;;;11.23;6.73;;;0.80;99.90;;;;;;5075581;28;20119;-78
2022/11/19 09:45:12;;;;;;;9.25;6.75;;;0.80;99.90;;;;;;5092605;28;20048;-78
2022/11/19 09:48:08;;;;;;;9.82;7.30;;;0.80;99.90;;;;;;5093022;28;20130;-78
2022/11/19 09:50:45;;;;;;;10.13;6.90;;;0.80;99.90;;;;;;5092995;28;20157;-84
2022/11/19 09:53:16;;;;;;;9.95;7.00;;;0.80;99.90;;;;;;5093922;28;20063;-79
2022/11/19 09:55:44;;;;;;;9.88;7.20;;;0.90;99.90;;;;;;5092511;28;20048;-80
2022/11/19 09:58:32;;;;;;;10.75;7.25;;;0.90;99.90;;;;;;5093717;28;20052;-82
2022/11/19 10:00:58;;;;;;;10.13;6.68;;;1.00;99.90;;;;;;5091726;28;20127;-83
2022/11/19 10:03:25;;;;;;;10.23;6.47;;;1.00;99.90;;;;;;5093591;28;20040;-83
2022/11/19 10:06:10;;;;;;;11.05;6.90;;;1.00;99.90;;;;;;5093292;28;20047;-83
2022/11/19 10:08:53;;;;;;;10.52;7.20;;;1.00;99.90;;;;;;5092683;28;20074;-83
2022/11/19 10:11:56;;;;;;;9.27;6.40;;;1.10;99.90;;;;;;5092820;28;20433;-83
2022/11/19 10:14:40;;;;;;;8.80;5.97;;;1.10;99.90;;;;;;5075866;28;20066;-87
2022/11/19 10:17:16;;;;;;;8.75;6.43;;;1.20;99.90;;;;;;5092977;28;20044;-84
2022/11/19 10:19:57;;;;;;;8.32;5.68;;;1.20;99.90;;;;;;5091971;28;20044;-86
2022/11/19 10:22:26;;;;;;;9.20;6.47;;;1.30;99.90;;;;;;5092696;28;20052;-88
2022/11/19 10:25:10;;;;;;;8.95;6.13;;;1.30;99.90;;;;;;5093090;28;20143;-86
2022/11/19 10:27:56;;;;;;;8.95;5.70;;;1.30;99.90;;;;;;5093528;28;20052;-85
2022/11/19 10:30:25;;;;;;;8.70;5.68;;;1.40;99.90;;;;;;5075332;28;20047;-83
2022/11/19 10:33:13;;;;;;;9.38;6.07;;;1.40;99.90;;;;;;5075211;28;20084;-84
2022/11/19 10:35:44;;;;;;;8.35;5.55;;;1.50;99.90;;;;;;5093348;28;20055;-81
2022/11/19 10:38:27;;;;;;;9.68;6.40;;;1.50;99.90;;;;;;5093196;28;20135;-83
2022/11/19 10:41:00;;;;;;;7.85;5.35;;;1.50;99.90;;;;;;5092912;28;20102;-77
2022/11/19 10:43:33;;;;;;;8.25;5.32;;;1.50;99.90;;;;;;5093086;28;20048;-76
2022/11/19 10:46:01;;;;;;;8.43;5.53;;;1.50;99.90;;;;;;5092905;28;20048;-78
2022/11/19 10:48:41;;;;;;;9.13;5.18;;;1.50;99.90;;;;;;5093024;28;20041;-78
2022/11/19 10:51:36;;;;;;;8.55;5.82;;;1.50;99.90;;;;;;5092802;28;20131;-76
2022/11/19 10:54:06;;;;;;;8.40;5.55;;;1.60;99.90;;;;;;5090987;28;20060;-77
2022/11/19 10:56:40;;;;;;;8.25;5.63;;;1.60;99.90;;;;;;5093274;28;20333;-78
2022/11/19 10:59:13;;;;;;;9.20;6.13;;;1.60;99.90;;;;;;5092618;28;20044;-78
2022/11/19 11:01:43;;;;;;;10.07;6.40;;;1.70;99.90;;;;;;5093038;28;20047;-77
2022/11/19 11:04:15;;;;;;;9.07;5.90;;;1.70;99.90;;;;;;5092605;28;20044;-79
2022/11/19 11:06:58;;;;;;;9.52;5.53;;;1.80;99.90;;;;;;5092889;28;20140;-77
2022/11/19 11:09:39;;;;;;;9.05;5.55;;;1.80;99.90;;;;;;5092704;28;20044;-77
2022/11/19 11:15:27;;;;;;;;;;;1.90;99.90;;;;;;5096792;28;20058;-80
2022/11/19 11:18:07;;;;;;;11.68;6.57;;;2.00;99.90;;;;;;5093122;28;19962;-80
2022/11/19 11:20:36;;;;;;;8.10;5.25;;;2.00;99.90;;;;;;5096966;28;20058;-79
2022/11/19 11:23:14;;;;;;;7.82;5.28;;;1.90;99.90;;;;;;5096393;28;20102;-80
2022/11/19 11:25:49;;;;;;;8.05;5.30;;;2.00;99.90;;;;;;5096806;28;20095;-80
2022/11/19 11:28:17;;;;;;;9.05;5.57;;;2.10;99.90;;;;;;5096529;28;20074;-79
2022/11/19 11:30:56;;;;;;;9.00;6.15;;;2.00;99.90;;;;;;5078828;28;20441;-87
2022/11/19 11:33:34;;;;;;;7.72;5.20;;;2.10;99.90;;;;;;5095564;28;20403;-84
2022/11/19 11:36:12;;;;;;;7.38;4.97;;;2.10;99.90;;;;;;5096246;28;20052;-84
2022/11/19 11:38:42;;;;;;;8.00;5.65;;;2.20;99.90;;;;;;5096299;28;20127;-82
2022/11/19 11:41:13;;;;;;;7.82;5.00;;;2.10;99.90;;;;;;5095049;28;20048;-82
2022/11/19 11:44:00;;;;;;;7.97;4.82;;;2.20;99.90;;;;;;5096468;28;20047;-82
2022/11/19 11:46:48;;;;;;;7.15;4.68;;;2.30;99.90;;;;;;5095560;28;20052;-82
2022/11/19 11:49:27;;;;;;;7.38;4.90;;;2.30;99.90;;;;;;5094688;28;20131;-83
2022/11/19 11:52:02;;;;;;;6.80;4.70;;;2.30;99.90;;;;;;5095871;28;20475;-80
2022/11/19 11:54:28;;;;;;;7.40;5.05;;;2.40;99.90;;;;;;5096106;28;20087;-83
2022/11/19 11:57:17;;;;;;;7.43;4.60;;;2.40;99.90;;;;;;5095771;28;20141;-84
2022/11/19 11:59:43;;;;;;;8.20;4.95;;;2.40;99.90;;;;;;5094937;28;20113;-83
2022/11/19 12:02:29;;;;;;;7.87;4.43;;;2.40;99.90;;;;;;5095624;28;20480;-82
2022/11/19 12:04:55;;;;;;;;;;;2.40;99.90;;;;;;5078341;28;20059;-84
2022/11/19 12:07:46;;;;;;;8.02;5.25;;;2.50;99.90;;;;;;5077882;28;19920;-81
2022/11/19 12:10:21;;;;;;;8.98;4.90;;;2.50;99.90;;;;;;5094088;28;20510;-82
2022/11/19 12:12:49;;;;;;;8.25;5.47;;;2.50;99.90;;;;;;5096007;28;20052;-81
2022/11/19 12:15:36;;;;;;;8.27;5.30;;;2.50;99.90;;;;;;5094345;28;20044;-78
2022/11/19 12:18:22;;;;;;;8.45;5.38;;;2.50;99.90;;;;;;5094358;28;20142;-79
2022/11/19 12:21:08;;;;;;;8.07;5.30;;;2.50;99.90;;;;;;5095482;28;20492;-78
2022/11/19 12:23:51;;;;;;;10.80;5.87;;;2.50;99.90;;;;;;5095030;28;20090;-78
2022/11/19 12:26:45;;;;;;;10.30;5.70;;;2.50;99.90;;;;;;5094137;28;20855;-75
2022/11/19 12:29:55;;;;;;;8.48;5.38;;;2.50;99.90;;;;;;5094081;28;20040;-76
2022/11/19 12:32:45;;;;;;;7.55;5.13;;;2.50;99.90;;;;;;5093039;28;20404;-75
2022/11/19 12:35:18;;;;;;;10.52;5.10;;;2.50;99.90;;;;;;5095225;28;20452;-77
2022/11/19 12:38:00;;;;;;;8.32;5.25;;;2.60;99.90;;;;;;5095295;28;20055;-78
2022/11/19 12:40:51;;;;;;;8.45;4.53;;;2.60;99.90;;;;;;5095192;28;20055;-81
2022/11/19 12:43:53;;;;;;;8.07;4.85;;;2.60;99.90;;;;;;5111708;28;20043;-81
2022/11/19 12:46:21;;;;;;;7.57;4.60;;;2.60;99.90;;;;;;5077000;28;20043;-80
2022/11/19 12:49:16;;;;;;;7.85;4.60;;;2.70;99.90;;;;;;5093995;28;20488;-80
2022/11/19 12:51:51;;;;;;;9.90;6.43;;;2.70;99.90;;;;;;5093918;28;20378;-82
2022/11/19 12:54:43;;;;;;;8.68;5.35;;;2.80;99.90;;;;;;5076628;28;20048;-83
2022/11/19 12:57:30;;;;;;;7.80;4.47;;;2.80;99.90;;;;;;5086318;28;20086;-81
2022/11/19 13:00:18;;;;;;;8.02;4.90;;;2.90;99.90;;;;;;5085994;28;20167;-82
2022/11/19 13:02:52;;;;;;;7.85;4.90;;;2.90;99.90;;;;;;5070555;28;20481;-79
2022/11/19 13:05:38;;;;;;;7.18;5.00;;;2.90;99.90;;;;;;5071142;28;20044;-77
2022/11/19 13:08:12;;;;;;;8.82;4.78;;;2.90;99.90;;;;;;5071088;28;20130;-80
2022/11/19 13:10:43;;;;;;;7.00;3.60;;;2.90;99.90;;;;;;5072308;28;20398;-83
2022/11/19 13:13:16;;;;;;;8.20;4.20;;;3.00;99.90;;;;;;5073297;28;20048;-79
2022/11/19 13:15:56;;;;;;;9.43;5.13;;;3.00;99.90;;;;;;5073669;28;20096;-82
2022/11/19 13:18:28;;;;;;;12.50;5.47;;;3.10;99.90;;;;;;5072819;28;20044;-88
2022/11/19 13:21:07;;;;;;;7.15;3.80;;;3.10;99.90;;;;;;5073233;28;20052;-83
2022/11/19 13:23:45;;;;;;;6.55;4.15;;;3.00;99.90;;;;;;5073158;28;20044;-82
2022/11/19 13:26:29;;;;;;;6.97;4.40;;;3.20;99.90;;;;;;5072871;28;20109;-85
2022/11/19 13:29:34;;;;;;;7.18;4.53;;;3.20;99.90;;;;;;5073027;28;20424;-82
2022/11/19 13:32:14;;;;;;;7.47;4.55;;;3.10;99.90;;;;;;5089912;28;20131;-81
2022/11/19 13:35:02;;;;;;;7.88;4.78;;;3.10;99.90;;;;;;5072172;28;20119;-79
2022/11/19 13:37:59;;;;;;;8.27;4.20;;;3.20;99.90;;;;;;5072536;28;20472;-79